Time;durP1;ratioP1;P1;durP2;ratioP2;P2;SDS_P1;SDS_P2;PMS_P1;PMS_P2;Temp;Humidity;BMP_temperature;BMP_pressure;BME280_temperature;BME280_humidity;BME280_pressure;Samples;Min_cycle;Max_cycle;Signal;HPM_P1;HPM_P2
2022/09/06 00:01:09;;;;;;;10.85;5.80;;;20.20;89.20;;;;;;5034186;28;20041;-72
2022/09/06 00:03:35;;;;;;;8.15;5.70;;;20.10;89.40;;;;;;5014511;28;20390;-72
2022/09/06 00:06:06;;;;;;;9.15;5.72;;;20.10;89.50;;;;;;5014773;28;20049;-72
2022/09/06 00:08:32;;;;;;;6.97;5.30;;;20.00;89.70;;;;;;5021731;28;20045;-72
2022/09/06 00:10:58;;;;;;;5.88;5.38;;;20.00;89.80;;;;;;5017140;28;20106;-72
2022/09/06 00:13:24;;;;;;;6.20;5.38;;;20.00;89.80;;;;;;5033705;28;20513;-71
2022/09/06 00:15:50;;;;;;;6.93;6.15;;;19.90;90.10;;;;;;5034567;28;20049;-72
2022/09/06 00:18:16;;;;;;;6.20;5.60;;;19.90;90.10;;;;;;5032912;28;20033;-72
2022/09/06 00:20:42;;;;;;;7.15;5.50;;;19.80;90.30;;;;;;5034116;28;20049;-72
2022/09/06 00:23:08;;;;;;;8.70;5.72;;;19.90;90.20;;;;;;5017868;28;20037;-72
2022/09/06 00:25:34;;;;;;;6.20;5.30;;;19.80;90.30;;;;;;5034156;28;20076;-72
2022/09/06 00:28:03;;;;;;;6.55;5.10;;;19.80;90.30;;;;;;5030538;28;20542;-71
2022/09/06 00:30:30;;;;;;;7.72;5.97;;;19.80;90.40;;;;;;5014333;28;20049;-71
2022/09/06 00:32:56;;;;;;;6.00;5.40;;;19.80;90.50;;;;;;5033485;28;20045;-71
2022/09/06 00:35:23;;;;;;;6.20;5.13;;;19.70;90.40;;;;;;5001018;28;20046;-71
2022/09/06 00:37:50;;;;;;;11.38;5.50;;;19.70;90.50;;;;;;5034073;28;20052;-71
2022/09/06 00:40:17;;;;;;;9.68;5.85;;;19.70;90.60;;;;;;5016433;28;20037;-71
2022/09/06 00:42:42;;;;;;;7.13;5.72;;;19.70;90.60;;;;;;5015344;28;20460;-71
2022/09/06 00:45:10;;;;;;;6.75;5.53;;;19.60;90.70;;;;;;5001543;28;20084;-71
2022/09/06 00:47:39;;;;;;;8.13;6.00;;;19.60;91.20;;;;;;5013143;28;20037;-71
2022/09/06 00:50:06;;;;;;;7.95;5.97;;;19.60;90.90;;;;;;5014252;28;20052;-71
2022/09/06 00:52:33;;;;;;;7.93;5.85;;;19.60;90.90;;;;;;5030474;28;20041;-72
2022/09/06 00:54:59;;;;;;;7.15;5.53;;;19.60;91.00;;;;;;5032967;28;20076;-71
2022/09/06 00:57:27;;;;;;;8.23;6.07;;;19.50;91.10;;;;;;5017403;28;20094;-72
2022/09/06 00:59:55;;;;;;;10.05;6.22;;;19.50;91.10;;;;;;5033988;28;20049;-71
2022/09/06 01:02:21;;;;;;;6.95;5.70;;;19.50;91.20;;;;;;5032656;28;20085;-71
2022/09/06 01:04:48;;;;;;;10.32;6.45;;;19.50;91.20;;;;;;5017370;28;20080;-71
2022/09/06 01:07:34;;;;;;;8.07;5.40;;;19.50;91.30;;;;;;5032950;28;20136;-71
2022/09/06 01:10:23;;;;;;;7.95;5.90;;;19.50;91.30;;;;;;5033707;28;20049;-71
2022/09/06 01:12:49;;;;;;;6.47;5.88;;;19.50;91.50;;;;;;5026050;28;20037;-71
2022/09/06 01:15:42;;;;;;;6.72;5.95;;;19.40;91.40;;;;;;5031173;28;20532;-71
2022/09/06 01:18:35;;;;;;;10.02;5.95;;;19.50;91.50;;;;;;5015657;28;20525;-71
2022/09/06 01:21:06;;;;;;;9.27;6.40;;;19.40;91.70;;;;;;5028740;28;20556;-71
2022/09/06 01:24:08;;;;;;;7.05;6.35;;;19.40;91.70;;;;;;5031750;28;20037;-71
2022/09/06 01:26:43;;;;;;;10.13;6.60;;;19.40;91.80;;;;;;5028052;28;20045;-71
2022/09/06 01:29:20;;;;;;;8.52;6.57;;;19.40;91.70;;;;;;5015925;28;21492;-72
2022/09/06 01:32:04;;;;;;;10.00;6.38;;;19.30;91.90;;;;;;5016846;28;20042;-71
2022/09/06 01:34:44;;;;;;;9.68;6.72;;;19.30;92.00;;;;;;5016270;28;20087;-71
2022/09/06 01:37:16;;;;;;;7.55;6.63;;;19.30;92.10;;;;;;5015429;28;20055;-72
2022/09/06 01:39:42;;;;;;;6.82;6.18;;;19.30;92.20;;;;;;5027433;28;20077;-71
2022/09/06 01:42:24;;;;;;;7.38;6.40;;;19.30;92.00;;;;;;5027750;28;20049;-71
2022/09/06 01:45:07;;;;;;;7.65;6.43;;;19.30;92.10;;;;;;5023917;28;20049;-71
2022/09/06 01:48:16;;;;;;;8.13;6.78;;;19.30;92.20;;;;;;5015141;28;20045;-72
2022/09/06 01:50:55;;;;;;;8.40;6.88;;;19.30;92.50;;;;;;5030271;28;20037;-71
2022/09/06 01:53:58;;;;;;;7.60;6.88;;;19.30;92.20;;;;;;5045648;28;20505;-71
2022/09/06 01:57:05;;;;;;;7.60;6.72;;;19.30;92.50;;;;;;5027530;28;20056;-72
2022/09/06 02:00:19;;;;;;;9.05;7.00;;;19.30;92.40;;;;;;5022877;28;20370;-72
2022/09/06 02:03:06;;;;;;;7.88;7.18;;;19.20;92.50;;;;;;5001925;28;20165;-72
2022/09/06 02:05:38;;;;;;;8.43;6.85;;;19.20;92.50;;;;;;5024164;28;20421;-74
2022/09/06 02:08:13;;;;;;;7.50;6.80;;;19.20;92.60;;;;;;5028760;28;20053;-75
2022/09/06 02:11:03;;;;;;;7.72;6.88;;;19.20;92.50;;;;;;5023709;28;20061;-72
2022/09/06 02:13:45;;;;;;;7.85;7.00;;;19.20;92.60;;;;;;5027317;28;20132;-72
2022/09/06 02:16:14;;;;;;;10.98;7.05;;;19.20;92.70;;;;;;5026898;28;20041;-71
2022/09/06 02:18:46;;;;;;;9.57;7.45;;;19.20;92.70;;;;;;5026850;28;20045;-71
2022/09/06 02:21:15;;;;;;;8.25;7.15;;;19.20;92.90;;;;;;5012203;28;20045;-71
2022/09/06 02:23:43;;;;;;;7.88;7.07;;;19.20;92.90;;;;;;5009293;28;20064;-72
2022/09/06 02:26:15;;;;;;;8.20;7.40;;;19.20;92.90;;;;;;5046281;28;20049;-71
2022/09/06 02:28:41;;;;;;;9.60;7.68;;;19.20;93.00;;;;;;5023445;28;20103;-72
2022/09/06 02:31:21;;;;;;;8.73;6.82;;;19.20;93.10;;;;;;4974570;28;20052;-71
2022/09/06 02:33:49;;;;;;;8.98;7.40;;;19.20;93.20;;;;;;5025047;28;20045;-72
2022/09/06 02:36:15;;;;;;;8.10;7.30;;;19.10;93.30;;;;;;5040787;28;20049;-72
2022/09/06 02:38:42;;;;;;;7.88;7.07;;;19.10;93.40;;;;;;5029872;28;20049;-72
2022/09/06 02:41:09;;;;;;;8.85;7.60;;;19.10;93.50;;;;;;5030275;28;20045;-71
2022/09/06 02:43:35;;;;;;;7.97;7.18;;;19.00;93.60;;;;;;5031934;28;20056;-72
2022/09/06 02:46:01;;;;;;;9.20;7.55;;;19.00;94.00;;;;;;5015550;28;20042;-72
2022/09/06 02:48:27;;;;;;;9.10;7.68;;;19.00;93.80;;;;;;5014785;28;20045;-72
2022/09/06 02:50:53;;;;;;;8.00;7.30;;;19.00;93.90;;;;;;5030858;28;20375;-72
2022/09/06 02:53:19;;;;;;;11.50;7.68;;;19.00;93.90;;;;;;4994585;28;20488;-72
2022/09/06 02:55:47;;;;;;;9.20;7.82;;;19.00;94.10;;;;;;5011875;28;20046;-72
2022/09/06 02:58:14;;;;;;;8.68;7.63;;;19.00;94.10;;;;;;5012168;28;20049;-72
2022/09/06 03:00:40;;;;;;;10.40;7.60;;;19.00;94.30;;;;;;5027393;28;20124;-71
2022/09/06 03:03:06;;;;;;;9.27;7.60;;;19.00;94.30;;;;;;5030568;28;20124;-71
2022/09/06 03:05:32;;;;;;;13.80;8.00;;;19.00;94.30;;;;;;5031463;28;20046;-71
2022/09/06 03:07:59;;;;;;;11.38;8.10;;;19.00;94.40;;;;;;5018419;28;20057;-71
2022/09/06 03:10:25;;;;;;;9.25;7.82;;;18.90;94.70;;;;;;5023933;28;20071;-72
2022/09/06 03:12:54;;;;;;;10.68;8.45;;;18.90;94.80;;;;;;5029198;28;20493;-71
2022/09/06 03:15:20;;;;;;;11.52;8.43;;;18.90;94.90;;;;;;5027562;28;20087;-74
2022/09/06 03:17:46;;;;;;;9.00;7.97;;;18.90;94.90;;;;;;5025144;28;20053;-73
2022/09/06 03:20:12;;;;;;;9.57;8.57;;;18.90;95.10;;;;;;5039358;28;20041;-73
2022/09/06 03:22:39;;;;;;;11.13;8.57;;;18.90;95.20;;;;;;5026123;28;20168;-72
2022/09/06 03:25:06;;;;;;;9.10;8.30;;;18.80;95.30;;;;;;5040046;28;20091;-73
2022/09/06 03:27:32;;;;;;;9.65;8.68;;;18.80;95.50;;;;;;5030186;28;20131;-73
2022/09/06 03:29:58;;;;;;;9.88;8.75;;;18.80;95.70;;;;;;5030663;28;20136;-73
2022/09/06 03:32:24;;;;;;;11.25;8.63;;;18.70;95.80;;;;;;5015004;28;20055;-73
2022/09/06 03:34:50;;;;;;;10.30;9.23;;;18.80;96.10;;;;;;4997587;28;20423;-74
2022/09/06 03:37:16;;;;;;;16.05;9.25;;;18.70;96.10;;;;;;5031088;28;20041;-73
2022/09/06 03:39:42;;;;;;;10.68;9.02;;;18.70;96.30;;;;;;5015235;28;20045;-73
2022/09/06 03:42:08;;;;;;;10.70;9.52;;;18.70;96.30;;;;;;5007853;28;20363;-73
2022/09/06 03:44:34;;;;;;;10.30;9.13;;;18.70;96.70;;;;;;5021914;28;20463;-73
2022/09/06 03:47:00;;;;;;;9.52;8.52;;;18.60;96.80;;;;;;5024466;28;20083;-73
2022/09/06 03:49:26;;;;;;;10.98;9.60;;;18.70;97.10;;;;;;5029897;28;20041;-72
2022/09/06 03:51:52;;;;;;;11.82;9.82;;;18.60;97.20;;;;;;5026415;28;20457;-73
2022/09/06 03:54:18;;;;;;;10.65;9.20;;;18.60;97.30;;;;;;5011089;28;20063;-73
2022/09/06 03:56:44;;;;;;;11.25;9.98;;;18.60;97.50;;;;;;4992082;28;20049;-73
2022/09/06 03:59:15;;;;;;;10.45;9.48;;;18.60;97.60;;;;;;5028464;28;20124;-72
2022/09/06 04:01:41;;;;;;;10.93;9.82;;;18.60;97.80;;;;;;5025381;28;20053;-73
2022/09/06 04:04:07;;;;;;;12.88;10.02;;;18.60;98.00;;;;;;5022517;28;20689;-73
2022/09/06 04:06:33;;;;;;;11.10;10.00;;;18.60;98.10;;;;;;5043104;28;20140;-73
2022/09/06 04:08:59;;;;;;;11.52;10.15;;;18.60;98.20;;;;;;5011232;28;20129;-73
2022/09/06 04:11:25;;;;;;;12.20;10.07;;;18.60;98.60;;;;;;5012798;28;20049;-73
2022/09/06 04:13:51;;;;;;;11.18;10.02;;;18.60;98.50;;;;;;5017279;28;20044;-73
2022/09/06 04:16:17;;;;;;;11.38;10.18;;;18.60;98.60;;;;;;5026579;28;20033;-74
2022/09/06 04:18:43;;;;;;;12.55;10.25;;;18.60;98.70;;;;;;5032730;28;20056;-74
2022/09/06 04:21:09;;;;;;;12.20;10.40;;;18.60;98.90;;;;;;5034529;28;20045;-73
2022/09/06 04:23:35;;;;;;;12.05;10.57;;;18.60;99.00;;;;;;5031055;28;20044;-73
2022/09/06 04:26:01;;;;;;;12.65;10.30;;;18.60;99.20;;;;;;5033330;28;20111;-73
2022/09/06 04:28:27;;;;;;;17.85;11.35;;;18.60;99.40;;;;;;5015145;28;20536;-73
2022/09/06 04:31:01;;;;;;;11.40;10.30;;;18.60;99.40;;;;;;5032025;28;20180;-73
2022/09/06 04:33:28;;;;;;;11.32;9.88;;;18.50;99.60;;;;;;5030254;28;20037;-73
2022/09/06 04:35:56;;;;;;;12.30;11.05;;;18.60;99.70;;;;;;5030823;28;20076;-74
2022/09/06 04:38:23;;;;;;;12.90;10.73;;;18.60;99.80;;;;;;5008935;28;20122;-74
2022/09/06 04:40:49;;;;;;;12.15;10.95;;;18.60;99.90;;;;;;5034261;28;20049;-73
2022/09/06 04:43:15;;;;;;;15.95;11.70;;;18.60;99.90;;;;;;5014910;28;20029;-73
2022/09/06 04:45:41;;;;;;;12.05;10.85;;;18.60;99.90;;;;;;5000698;28;20049;-73
2022/09/06 04:48:07;;;;;;;12.30;11.10;;;18.60;99.90;;;;;;5034027;28;20083;-73
2022/09/06 04:50:33;;;;;;;11.48;10.38;;;18.60;99.90;;;;;;5031980;28;21421;-73
2022/09/06 04:52:59;;;;;;;14.00;11.40;;;18.60;99.90;;;;;;5032843;28;20052;-73
2022/09/06 04:55:28;;;;;;;11.95;10.75;;;18.60;99.90;;;;;;5016144;28;20041;-73
2022/09/06 04:57:55;;;;;;;13.02;11.57;;;18.60;99.90;;;;;;5033739;28;20107;-73
2022/09/06 05:00:21;;;;;;;11.75;10.65;;;18.60;99.90;;;;;;5017527;28;20481;-73
2022/09/06 05:02:47;;;;;;;12.90;11.45;;;18.60;99.90;;;;;;5016225;28;20046;-73
2022/09/06 05:05:13;;;;;;;12.45;11.25;;;18.70;99.90;;;;;;5017090;28;20068;-73
2022/09/06 05:07:39;;;;;;;13.18;11.18;;;18.60;99.90;;;;;;4996201;28;20054;-73
2022/09/06 05:10:05;;;;;;;12.15;10.95;;;18.60;99.90;;;;;;5027200;28;20053;-73
2022/09/06 05:12:30;;;;;;;12.52;10.95;;;18.70;99.90;;;;;;5015189;28;20033;-73
2022/09/06 05:14:56;;;;;;;13.68;10.90;;;18.70;99.90;;;;;;5031934;28;20046;-74
2022/09/06 05:17:22;;;;;;;12.35;11.15;;;18.60;99.90;;;;;;5027110;28;20045;-73
2022/09/06 05:19:49;;;;;;;12.18;11.07;;;18.70;99.90;;;;;;5032083;28;20045;-73
2022/09/06 05:22:15;;;;;;;12.43;11.23;;;18.70;99.90;;;;;;5014352;28;20409;-73
2022/09/06 05:24:41;;;;;;;14.95;12.07;;;18.70;99.90;;;;;;5031803;28;20037;-73
2022/09/06 05:27:07;;;;;;;14.85;11.02;;;18.70;99.90;;;;;;5027037;28;20088;-73
2022/09/06 05:29:33;;;;;;;14.55;12.48;;;18.70;99.90;;;;;;5004244;28;20041;-73
2022/09/06 05:31:59;;;;;;;13.10;10.88;;;18.70;99.90;;;;;;5015467;28;20068;-73
2022/09/06 05:34:24;;;;;;;20.45;14.05;;;18.70;99.90;;;;;;5028062;28;20124;-72
2022/09/06 05:36:50;;;;;;;19.67;14.18;;;18.60;99.90;;;;;;5014432;28;20102;-73
2022/09/06 05:39:19;;;;;;;16.63;13.93;;;18.50;99.90;;;;;;4999300;28;20037;-73
2022/09/06 05:41:46;;;;;;;16.27;14.48;;;18.40;99.90;;;;;;5017187;28;20042;-73
2022/09/06 05:44:13;;;;;;;15.45;13.48;;;18.30;99.90;;;;;;4997535;28;20033;-72
2022/09/06 05:46:44;;;;;;;17.90;14.88;;;18.40;99.90;;;;;;4998237;28;20402;-73
2022/09/06 05:49:11;;;;;;;16.63;14.88;;;18.40;99.90;;;;;;5014857;28;20037;-72
2022/09/06 05:51:38;;;;;;;15.07;13.38;;;18.30;99.90;;;;;;5016086;28;20438;-72
2022/09/06 05:54:04;;;;;;;16.33;14.60;;;18.30;99.90;;;;;;4998740;28;20096;-72
2022/09/06 05:56:30;;;;;;;17.10;14.95;;;18.20;99.90;;;;;;4999783;28;20056;-72
2022/09/06 05:58:55;;;;;;;17.33;15.27;;;18.20;99.90;;;;;;5031147;28;20045;-74
2022/09/06 06:01:26;;;;;;;17.25;15.25;;;18.10;99.90;;;;;;5015309;28;20041;-73
2022/09/06 06:03:56;;;;;;;17.83;16.05;;;18.00;99.90;;;;;;5031046;28;20175;-74
2022/09/06 06:06:24;;;;;;;17.95;15.65;;;18.00;99.90;;;;;;5031047;28;20049;-74
2022/09/06 06:08:50;;;;;;;17.15;14.30;;;18.00;99.90;;;;;;4997108;28;20073;-74
2022/09/06 06:11:16;;;;;;;17.98;15.93;;;18.00;99.90;;;;;;5012040;28;20382;-74
2022/09/06 06:13:43;;;;;;;19.00;15.45;;;18.10;99.90;;;;;;5030678;28;20577;-74
2022/09/06 06:16:11;;;;;;;16.52;14.80;;;18.20;99.90;;;;;;5030521;28;20378;-74
2022/09/06 06:18:38;;;;;;;17.80;15.68;;;18.20;99.90;;;;;;5014896;28;20481;-74
2022/09/06 06:21:20;;;;;;;17.50;15.70;;;18.20;99.90;;;;;;5030451;28;20053;-74
2022/09/06 06:23:49;;;;;;;18.08;15.75;;;18.30;99.90;;;;;;4995907;28;20045;-74
2022/09/06 06:26:15;;;;;;;18.17;15.70;;;18.30;99.90;;;;;;5029482;28;20049;-74
2022/09/06 06:28:41;;;;;;;18.70;16.00;;;18.30;99.90;;;;;;4997834;28;20052;-74
2022/09/06 06:31:09;;;;;;;19.33;17.17;;;18.30;99.90;;;;;;5030978;28;20045;-75
2022/09/06 06:33:35;;;;;;;18.38;16.58;;;18.30;99.90;;;;;;5030011;28;20441;-75
2022/09/06 06:36:12;;;;;;;19.05;16.23;;;18.40;99.90;;;;;;5027652;28;20045;-74
2022/09/06 06:38:39;;;;;;;17.65;15.80;;;18.40;99.90;;;;;;5025474;28;20049;-75
2022/09/06 06:41:07;;;;;;;18.50;16.52;;;18.50;99.90;;;;;;5030180;28;20049;-75
2022/09/06 06:43:36;;;;;;;18.23;16.40;;;18.50;99.90;;;;;;5031723;28;20041;-75
2022/09/06 06:46:04;;;;;;;20.42;16.77;;;18.60;99.90;;;;;;5028415;28;20041;-75
2022/09/06 06:48:30;;;;;;;21.50;16.50;;;18.60;99.90;;;;;;5014792;28;20044;-74
2022/09/06 06:50:56;;;;;;;18.10;15.80;;;18.70;99.90;;;;;;5030558;28;20124;-74
2022/09/06 06:53:22;;;;;;;18.42;16.38;;;18.70;99.90;;;;;;5031092;28;20128;-75
2022/09/06 06:55:48;;;;;;;19.95;16.83;;;18.80;99.90;;;;;;5030376;28;20068;-74
2022/09/06 06:58:15;;;;;;;18.25;15.32;;;18.80;99.90;;;;;;5014679;28;20068;-75
2022/09/06 07:00:41;;;;;;;19.40;16.20;;;18.90;99.90;;;;;;5031102;28;20045;-74
2022/09/06 07:03:08;;;;;;;18.75;16.30;;;19.00;99.90;;;;;;5031496;28;20128;-74
2022/09/06 07:05:34;;;;;;;16.88;15.10;;;19.00;99.90;;;;;;5029535;28;20038;-74
2022/09/06 07:08:00;;;;;;;18.10;15.57;;;19.00;99.90;;;;;;5011196;28;20453;-74
2022/09/06 07:10:27;;;;;;;18.35;16.13;;;19.10;99.90;;;;;;5030009;28;20056;-74
2022/09/06 07:12:53;;;;;;;17.52;14.93;;;19.10;99.90;;;;;;5030580;28;20054;-75
2022/09/06 07:15:19;;;;;;;17.50;14.82;;;19.20;99.90;;;;;;5030145;28;20508;-75
2022/09/06 07:17:45;;;;;;;18.83;15.43;;;19.30;99.90;;;;;;5031432;28;20045;-74
2022/09/06 07:20:11;;;;;;;18.80;16.10;;;19.30;99.90;;;;;;5029359;28;20477;-75
2022/09/06 07:22:38;;;;;;;18.23;16.33;;;19.30;99.90;;;;;;4997969;28;20545;-75
2022/09/06 07:25:05;;;;;;;17.58;15.75;;;19.30;99.90;;;;;;5031448;28;20081;-75
2022/09/06 07:27:30;;;;;;;16.30;14.68;;;19.30;99.90;;;;;;5010429;28;20120;-75
2022/09/06 07:29:56;;;;;;;18.88;15.80;;;19.30;99.90;;;;;;5031560;28;20474;-75
2022/09/06 07:32:22;;;;;;;16.98;15.38;;;19.30;99.90;;;;;;5014029;28;20049;-75
2022/09/06 07:34:49;;;;;;;18.60;15.77;;;19.30;99.90;;;;;;5014196;28;20521;-75
2022/09/06 07:37:15;;;;;;;17.23;15.48;;;19.40;99.90;;;;;;5010548;28;20083;-74
2022/09/06 07:39:41;;;;;;;22.00;15.35;;;19.50;99.90;;;;;;5011581;28;20042;-75
2022/09/06 07:42:07;;;;;;;18.98;16.00;;;19.40;99.90;;;;;;5029376;28;20090;-75
2022/09/06 07:44:33;;;;;;;17.33;15.57;;;19.50;99.90;;;;;;5031157;28;20090;-75
2022/09/06 07:47:01;;;;;;;17.42;15.63;;;19.60;99.90;;;;;;5009773;28;20132;-75
2022/09/06 07:49:28;;;;;;;21.83;16.42;;;19.60;99.90;;;;;;5025466;28;20485;-75
2022/09/06 07:51:54;;;;;;;21.55;17.77;;;19.60;99.90;;;;;;4989237;28;20052;-74
2022/09/06 07:54:21;;;;;;;20.85;16.77;;;19.70;99.90;;;;;;4999904;28;20041;-75
2022/09/06 07:56:47;;;;;;;21.45;16.65;;;19.80;99.90;;;;;;5017888;28;20151;-75
2022/09/06 07:59:13;;;;;;;19.23;16.85;;;20.00;99.90;;;;;;5034258;28;20049;-75
2022/09/06 08:01:39;;;;;;;19.42;16.00;;;20.30;99.90;;;;;;5033866;28;20040;-75
2022/09/06 08:04:14;;;;;;;19.23;17.05;;;20.40;99.90;;;;;;5030792;28;20398;-74
2022/09/06 08:06:46;;;;;;;18.27;16.38;;;20.60;99.90;;;;;;5051151;28;20041;-74
2022/09/06 08:09:13;;;;;;;17.40;15.70;;;20.80;99.90;;;;;;5032892;28;20175;-75
2022/09/06 08:11:38;;;;;;;17.13;15.32;;;20.80;99.90;;;;;;5017589;28;20091;-75
2022/09/06 08:14:06;;;;;;;17.55;15.85;;;20.90;99.90;;;;;;5018068;28;20041;-75
2022/09/06 08:16:34;;;;;;;17.52;15.70;;;20.80;99.90;;;;;;5016878;28;20064;-75
2022/09/06 08:19:03;;;;;;;17.55;14.35;;;20.70;99.90;;;;;;5032852;28;20041;-75
2022/09/06 08:21:31;;;;;;;17.00;15.30;;;20.70;99.90;;;;;;5031476;28;20109;-75
2022/09/06 08:23:59;;;;;;;17.35;15.23;;;20.70;99.90;;;;;;5034287;28;20052;-75
2022/09/06 08:26:26;;;;;;;17.98;15.10;;;20.80;99.90;;;;;;5034260;28;20501;-75
2022/09/06 08:29:01;;;;;;;18.33;15.27;;;21.00;99.90;;;;;;5017389;28;20049;-75
2022/09/06 08:31:28;;;;;;;17.13;15.35;;;21.20;99.90;;;;;;5048124;28;20041;-74
2022/09/06 08:33:55;;;;;;;17.85;15.00;;;21.20;99.90;;;;;;5034204;28;20038;-74
2022/09/06 08:36:21;;;;;;;19.23;15.65;;;21.10;99.90;;;;;;5017703;28;20312;-74
2022/09/06 08:38:47;;;;;;;21.33;16.52;;;21.00;99.90;;;;;;5016625;28;20049;-74
2022/09/06 08:41:13;;;;;;;17.58;15.15;;;21.00;99.90;;;;;;4995650;28;20037;-75
2022/09/06 08:43:48;;;;;;;17.40;14.85;;;21.10;99.90;;;;;;5049574;28;20041;-74
2022/09/06 08:46:17;;;;;;;17.02;15.27;;;21.20;99.90;;;;;;5012528;28;20041;-74
2022/09/06 08:48:43;;;;;;;17.77;14.82;;;21.60;99.90;;;;;;5022134;28;20383;-74
2022/09/06 08:51:27;;;;;;;16.27;14.43;;;21.80;99.90;;;;;;5033948;28;20055;-74
2022/09/06 08:53:59;;;;;;;16.52;14.82;;;21.90;99.90;;;;;;5032394;28;20045;-74
2022/09/06 08:56:33;;;;;;;16.38;14.75;;;21.90;99.90;;;;;;5047046;28;20046;-74
2022/09/06 08:59:13;;;;;;;15.88;14.18;;;21.80;99.90;;;;;;5033777;28;20500;-74
2022/09/06 09:01:55;;;;;;;16.38;14.68;;;22.00;99.90;;;;;;5017573;28;20033;-74
2022/09/06 09:04:25;;;;;;;16.70;15.10;;;22.00;99.90;;;;;;5030508;28;20597;-74
2022/09/06 09:06:58;;;;;;;18.90;14.48;;;22.10;99.90;;;;;;5027608;28;20103;-74
2022/09/06 09:09:31;;;;;;;20.25;14.77;;;22.10;99.90;;;;;;5031788;28;20042;-74
2022/09/06 09:11:58;;;;;;;16.25;14.60;;;22.40;99.90;;;;;;5017222;28;20052;-74
2022/09/06 09:14:28;;;;;;;16.05;14.50;;;22.60;99.90;;;;;;5048216;28;20045;-74
2022/09/06 09:17:05;;;;;;;18.90;14.10;;;22.80;99.90;;;;;;5032820;28;20445;-73
2022/09/06 09:19:35;;;;;;;16.08;14.50;;;22.90;99.90;;;;;;5033694;28;20051;-74
2022/09/06 09:22:01;;;;;;;16.43;13.67;;;23.20;99.90;;;;;;5016055;28;20485;-74
2022/09/06 09:24:27;;;;;;;15.13;13.73;;;23.30;99.90;;;;;;5016941;28;20342;-74
2022/09/06 09:27:03;;;;;;;15.40;13.80;;;23.40;99.90;;;;;;5033536;28;20485;-74
2022/09/06 09:29:29;;;;;;;15.57;13.82;;;23.40;99.90;;;;;;5033208;28;20264;-74
2022/09/06 09:31:56;;;;;;;15.30;13.02;;;23.50;99.90;;;;;;5016192;28;20038;-74
2022/09/06 09:34:39;;;;;;;16.42;12.98;;;23.60;99.90;;;;;;5016630;28;20072;-74
2022/09/06 09:37:28;;;;;;;15.07;12.93;;;23.70;99.90;;;;;;5032997;28;20049;-73
2022/09/06 09:39:57;;;;;;;14.15;12.85;;;23.80;99.90;;;;;;5033064;28;20041;-74
2022/09/06 09:42:34;;;;;;;13.95;12.55;;;23.80;99.90;;;;;;5032392;28;20045;-74
2022/09/06 09:45:01;;;;;;;13.80;12.38;;;23.80;99.90;;;;;;5032979;28;20076;-74
2022/09/06 09:47:32;;;;;;;14.98;13.15;;;23.90;99.90;;;;;;5016761;28;20045;-74
2022/09/06 09:49:59;;;;;;;13.90;12.50;;;24.00;99.40;;;;;;5032822;28;20038;-74
2022/09/06 09:52:26;;;;;;;13.88;12.45;;;24.00;99.50;;;;;;5015356;28;20049;-74
2022/09/06 09:54:56;;;;;;;13.93;12.43;;;24.00;99.30;;;;;;5016265;28;20470;-74
2022/09/06 09:57:23;;;;;;;13.70;12.07;;;24.10;98.90;;;;;;5032677;28;20052;-74
2022/09/06 09:59:57;;;;;;;13.73;12.30;;;24.10;98.60;;;;;;5032724;28;20045;-74
2022/09/06 10:02:30;;;;;;;13.68;12.07;;;24.20;98.00;;;;;;5012388;28;20060;-73
2022/09/06 10:05:19;;;;;;;13.63;11.65;;;24.30;97.40;;;;;;5029274;28;20053;-74
2022/09/06 10:07:54;;;;;;;14.20;11.95;;;24.60;97.40;;;;;;5044149;28;20092;-74
2022/09/06 10:10:26;;;;;;;14.27;11.90;;;24.70;97.30;;;;;;5032465;28;20052;-75
2022/09/06 10:13:28;;;;;;;14.93;12.82;;;24.80;97.00;;;;;;5049165;28;20069;-74
2022/09/06 10:15:55;;;;;;;14.82;12.32;;;25.00;94.90;;;;;;5005961;28;20451;-75
2022/09/06 10:18:30;;;;;;;12.82;11.48;;;25.10;95.50;;;;;;5031101;28;20049;-75
2022/09/06 10:21:08;;;;;;;13.55;11.95;;;25.30;94.90;;;;;;5031685;28;20041;-74
2022/09/06 10:23:55;;;;;;;16.75;13.50;;;25.40;95.10;;;;;;5015718;28;20045;-74
2022/09/06 10:26:50;;;;;;;15.52;12.07;;;25.40;93.50;;;;;;5013228;28;20060;-74
2022/09/06 10:29:36;;;;;;;16.02;12.30;;;25.60;93.40;;;;;;5032056;28;20053;-74
2022/09/06 10:32:13;;;;;;;14.38;11.73;;;25.60;92.20;;;;;;5031480;28;20049;-74
2022/09/06 10:35:04;;;;;;;13.98;12.52;;;25.50;93.30;;;;;;5030989;28;20064;-74
2022/09/06 10:37:58;;;;;;;16.92;12.40;;;25.60;92.30;;;;;;5013801;28;20052;-74
2022/09/06 10:40:33;;;;;;;17.58;12.88;;;25.80;92.00;;;;;;5031861;28;20390;-74
2022/09/06 10:43:02;;;;;;;12.73;11.60;;;25.80;92.20;;;;;;5031852;28;20042;-75
2022/09/06 10:45:43;;;;;;;13.27;11.90;;;25.90;92.10;;;;;;5031388;28;20049;-74
2022/09/06 10:48:35;;;;;;;13.88;11.80;;;25.90;91.50;;;;;;5015288;28;20512;-74
2022/09/06 10:51:48;;;;;;;13.25;11.55;;;25.90;91.00;;;;;;5014348;28;20049;-74
2022/09/06 10:54:21;;;;;;;15.02;12.02;;;25.90;90.10;;;;;;4977658;28;20513;-75
2022/09/06 10:57:01;;;;;;;13.07;11.70;;;26.10;91.20;;;;;;5026426;28;20179;-74
2022/09/06 10:59:52;;;;;;;14.52;11.00;;;26.30;90.70;;;;;;5031838;28;20096;-74
2022/09/06 11:02:37;;;;;;;15.05;11.75;;;26.30;89.50;;;;;;5031667;28;20048;-74
2022/09/06 11:05:12;;;;;;;13.93;12.40;;;26.30;87.20;;;;;;5015352;28;20045;-74
2022/09/06 11:07:44;;;;;;;12.15;11.05;;;26.30;89.00;;;;;;5046875;28;20053;-74
2022/09/06 11:10:10;;;;;;;14.77;11.50;;;26.40;88.70;;;;;;5015012;28;20466;-74
2022/09/06 11:12:47;;;;;;;16.42;10.93;;;26.60;88.80;;;;;;5031609;28;20125;-74
2022/09/06 11:15:15;;;;;;;12.02;10.77;;;26.60;86.70;;;;;;5031277;28;20077;-74
2022/09/06 11:17:51;;;;;;;11.93;10.82;;;26.70;87.10;;;;;;5029898;28;20080;-75
2022/09/06 11:20:31;;;;;;;12.68;10.48;;;26.90;85.90;;;;;;5030471;28;20057;-74
2022/09/06 11:23:29;;;;;;;12.20;10.48;;;27.00;83.60;;;;;;5027337;28;20076;-75
2022/09/06 11:26:10;;;;;;;12.35;10.20;;;27.00;84.30;;;;;;5013811;28;20041;-74
2022/09/06 11:28:46;;;;;;;10.65;9.45;;;27.00;84.50;;;;;;4997593;28;20183;-75
2022/09/06 11:31:42;;;;;;;11.45;9.95;;;27.10;83.80;;;;;;4999482;28;20050;-74
2022/09/06 11:34:23;;;;;;;11.70;10.10;;;27.20;83.40;;;;;;5011088;28;20086;-75
2022/09/06 11:36:54;;;;;;;11.88;10.60;;;27.30;81.60;;;;;;5034867;28;20049;-74
2022/09/06 11:39:36;;;;;;;11.40;10.20;;;27.30;81.90;;;;;;5018974;28;20060;-74
2022/09/06 11:42:07;;;;;;;10.95;9.85;;;27.40;81.00;;;;;;5035379;28;20056;-74
2022/09/06 11:45:12;;;;;;;11.60;10.50;;;27.60;79.50;;;;;;5016078;28;20115;-75
2022/09/06 11:47:42;;;;;;;11.35;9.70;;;27.60;79.50;;;;;;5026899;28;20542;-74
2022/09/06 11:50:23;;;;;;;11.20;8.83;;;27.90;80.40;;;;;;5032544;28;20140;-74
2022/09/06 11:53:16;;;;;;;11.23;9.50;;;28.00;79.30;;;;;;5032106;28;20835;-74
2022/09/06 11:55:48;;;;;;;11.07;9.98;;;28.10;78.50;;;;;;5030942;28;20385;-74
2022/09/06 11:58:16;;;;;;;13.50;9.65;;;28.40;78.20;;;;;;5029339;28;20068;-74
2022/09/06 12:00:44;;;;;;;11.93;9.93;;;28.30;77.00;;;;;;5028296;28;20045;-74
2022/09/06 12:03:51;;;;;;;12.80;9.35;;;28.40;77.60;;;;;;5018556;28;20127;-74
2022/09/06 12:06:32;;;;;;;12.65;9.18;;;29.00;75.80;;;;;;5021149;28;20099;-75
2022/09/06 12:08:58;;;;;;;11.90;9.40;;;29.00;73.80;;;;;;5043673;28;20052;-74
2022/09/06 12:11:41;;;;;;;11.35;8.90;;;29.20;76.70;;;;;;5013297;28;20045;-74
2022/09/06 12:14:26;;;;;;;13.10;9.00;;;29.50;76.40;;;;;;5016952;28;20041;-74
2022/09/06 12:16:58;;;;;;;16.92;8.80;;;30.00;74.90;;;;;;5026634;28;20045;-74
2022/09/06 12:19:50;;;;;;;9.35;8.25;;;30.20;73.50;;;;;;5026832;28;20092;-74
2022/09/06 12:22:25;;;;;;;9.75;8.45;;;30.30;70.70;;;;;;5028900;28;20038;-75
2022/09/06 12:24:59;;;;;;;10.35;9.40;;;30.60;68.90;;;;;;5032418;28;20068;-73
2022/09/06 12:27:28;;;;;;;9.80;8.10;;;30.70;71.20;;;;;;5029397;28;20132;-73
2022/09/06 12:30:10;;;;;;;12.55;8.27;;;31.00;69.80;;;;;;5029020;28;20120;-73
2022/09/06 12:32:41;;;;;;;11.85;7.90;;;31.10;66.50;;;;;;5031635;28;20504;-73
2022/09/06 12:35:20;;;;;;;9.38;7.57;;;31.30;67.40;;;;;;5017570;28;20057;-73
2022/09/06 12:37:54;;;;;;;10.95;8.18;;;31.40;63.40;;;;;;5031477;28;20116;-73
2022/09/06 12:40:23;;;;;;;10.00;7.72;;;31.50;66.30;;;;;;5028348;28;20037;-73
2022/09/06 12:42:50;;;;;;;9.98;8.13;;;31.90;65.90;;;;;;5014425;28;20053;-73
2022/09/06 12:45:18;;;;;;;9.23;7.65;;;32.00;63.80;;;;;;5031398;28;20052;-73
2022/09/06 12:47:44;;;;;;;9.05;8.23;;;32.10;64.00;;;;;;5033383;28;20081;-73
2022/09/06 12:50:20;;;;;;;8.27;7.47;;;32.50;63.70;;;;;;5034157;28;20075;-73
2022/09/06 12:52:49;;;;;;;9.77;7.72;;;33.00;60.50;;;;;;5013851;28;20049;-73
2022/09/06 12:55:29;;;;;;;8.70;7.38;;;33.20;60.80;;;;;;5027222;28;20049;-74